createdAt,value
2022-12-26T00:01:26.806Z,100.00
2022-12-26T00:03:59.886Z,100.00
2022-12-26T00:06:33.963Z,100.00
2022-12-26T00:09:07.771Z,100.00
2022-12-26T00:11:40.995Z,100.00
2022-12-26T00:14:16.549Z,100.00
2022-12-26T00:16:49.433Z,100.00
2022-12-26T00:19:22.316Z,100.00
2022-12-26T00:21:57.424Z,100.00
2022-12-26T00:24:30.394Z,100.00
2022-12-26T00:27:04.240Z,100.00
2022-12-26T00:29:38.368Z,100.00
2022-12-26T00:32:11.181Z,100.00
2022-12-26T00:34:44.783Z,100.00
2022-12-26T00:37:17.657Z,100.00
2022-12-26T00:39:50.486Z,100.00
2022-12-26T00:42:23.691Z,100.00
2022-12-26T00:44:57.982Z,100.00
2022-12-26T00:47:31.148Z,100.00
2022-12-26T00:50:13.763Z,100.00
2022-12-26T00:52:47.975Z,100.00
2022-12-26T00:55:21.141Z,100.00
2022-12-26T00:57:53.965Z,100.00
2022-12-26T01:00:28.841Z,100.00
2022-12-26T01:03:01.941Z,100.00
2022-12-26T01:05:35.338Z,100.00
2022-12-26T01:08:22.792Z,100.00
2022-12-26T01:10:57.645Z,100.00
2022-12-26T01:13:30.460Z,100.00
2022-12-26T01:16:06.358Z,100.00
2022-12-26T01:18:39.512Z,100.00
2022-12-26T01:21:12.481Z,100.00
2022-12-26T01:23:45.369Z,100.00
2022-12-26T01:26:20.300Z,100.00
2022-12-26T01:28:54.273Z,100.00
2022-12-26T01:31:31.443Z,100.00
2022-12-26T01:34:04.412Z,100.00
2022-12-26T01:36:37.328Z,100.00
2022-12-26T01:39:10.138Z,100.00
2022-12-26T01:41:42.974Z,100.00
2022-12-26T01:44:48.984Z,100.00
2022-12-26T01:47:26.710Z,100.00
2022-12-26T01:49:59.670Z,100.00
2022-12-26T01:52:37.774Z,100.00
2022-12-26T01:55:15.234Z,100.00
2022-12-26T01:57:54.679Z,100.00
2022-12-26T02:00:27.716Z,100.00
2022-12-26T02:03:19.584Z,100.00
2022-12-26T02:05:52.494Z,100.00
2022-12-26T02:08:30.192Z,100.00
2022-12-26T02:11:11.742Z,100.00
2022-12-26T02:13:44.860Z,100.00
2022-12-26T02:16:19.940Z,100.00
2022-12-26T02:18:54.144Z,100.00
2022-12-26T02:22:04.510Z,100.00
2022-12-26T02:24:59.431Z,100.00
2022-12-26T02:28:01.536Z,100.00
2022-12-26T02:30:43.115Z,100.00
2022-12-26T02:33:32.713Z,100.00
2022-12-26T02:36:40.476Z,100.00
2022-12-26T02:39:44.614Z,100.00
2022-12-26T02:42:36.058Z,100.00
2022-12-26T02:45:35.246Z,100.00
2022-12-26T02:48:15.576Z,100.00
2022-12-26T02:51:15.901Z,100.00
2022-12-26T02:54:16.651Z,100.00
2022-12-26T02:57:12.324Z,100.00
2022-12-26T03:00:07.657Z,100.00
2022-12-26T03:03:03.074Z,100.00
2022-12-26T03:06:00.557Z,100.00
2022-12-26T03:08:55.353Z,100.00
2022-12-26T03:11:51.190Z,100.00
2022-12-26T03:14:29.301Z,100.00
2022-12-26T03:17:21.486Z,100.00
2022-12-26T03:20:01.550Z,100.00
2022-12-26T03:22:43.110Z,100.00
2022-12-26T03:25:39.175Z,100.00
2022-12-26T03:28:14.008Z,100.00
2022-12-26T03:30:49.214Z,100.00
2022-12-26T03:33:43.184Z,100.00
2022-12-26T03:36:19.487Z,100.00
2022-12-26T03:39:07.477Z,100.00
2022-12-26T03:42:08.912Z,100.00
2022-12-26T03:45:10.271Z,100.00
2022-12-26T03:48:10.794Z,100.00
2022-12-26T03:51:06.570Z,100.00
2022-12-26T03:54:03.975Z,100.00
2022-12-26T03:57:00.126Z,100.00
2022-12-26T04:00:10.365Z,100.00
2022-12-26T04:03:07.193Z,100.00
2022-12-26T04:06:04.494Z,100.00
2022-12-26T04:09:03.851Z,100.00
2022-12-26T04:11:57.921Z,100.00
2022-12-26T04:15:12.324Z,100.00
2022-12-26T04:18:06.841Z,100.00
2022-12-26T04:21:05.358Z,100.00
2022-12-26T04:24:02.479Z,100.00
2022-12-26T04:26:59.595Z,100.00
2022-12-26T04:29:49.756Z,100.00
2022-12-26T04:32:50.355Z,100.00
2022-12-26T04:35:46.467Z,100.00
2022-12-26T04:38:43.055Z,100.00
2022-12-26T04:41:35.341Z,100.00
2022-12-26T04:44:11.841Z,100.00
2022-12-26T04:46:47.161Z,100.00
2022-12-26T04:49:40.569Z,100.00
2022-12-26T04:52:15.596Z,100.00
2022-12-26T04:54:48.633Z,100.00
2022-12-26T04:57:22.717Z,100.00
2022-12-26T04:59:56.932Z,100.00
2022-12-26T05:02:48.017Z,100.00
2022-12-26T05:05:38.638Z,100.00
2022-12-26T05:08:41.509Z,100.00
2022-12-26T05:11:14.495Z,100.00
2022-12-26T05:13:50.134Z,100.00
2022-12-26T05:16:43.568Z,100.00
2022-12-26T05:19:35.856Z,100.00
2022-12-26T05:22:29.354Z,100.00
2022-12-26T05:25:19.460Z,100.00
2022-12-26T05:28:09.761Z,100.00
2022-12-26T05:30:42.508Z,100.00
2022-12-26T05:33:34.455Z,100.00
2022-12-26T05:36:07.697Z,100.00
2022-12-26T05:38:40.581Z,100.00
2022-12-26T05:41:13.378Z,100.00
2022-12-26T05:43:46.161Z,100.00
2022-12-26T05:46:19.896Z,100.00
2022-12-26T05:48:54.827Z,100.00
2022-12-26T05:51:27.728Z,100.00
2022-12-26T05:54:00.946Z,100.00
2022-12-26T05:56:33.827Z,100.00
2022-12-26T05:59:06.668Z,100.00
2022-12-26T06:01:39.575Z,100.00
2022-12-26T06:04:14.769Z,100.00
2022-12-26T06:06:47.580Z,100.00
2022-12-26T06:09:20.489Z,100.00
2022-12-26T06:11:53.262Z,100.00
2022-12-26T06:14:26.199Z,100.00
2022-12-26T06:16:59.233Z,100.00
2022-12-26T06:19:33.894Z,100.00
2022-12-26T06:22:07.047Z,100.00
2022-12-26T06:24:39.870Z,100.00
2022-12-26T06:27:12.734Z,100.00
2022-12-26T06:29:45.534Z,100.00
2022-12-26T06:32:18.377Z,100.00
2022-12-26T06:34:52.539Z,100.00
2022-12-26T06:37:25.414Z,100.00
2022-12-26T06:39:58.199Z,100.00
2022-12-26T06:42:31.048Z,100.00
2022-12-26T06:45:05.431Z,100.00
2022-12-26T06:47:38.298Z,100.00
2022-12-26T06:50:12.886Z,100.00
2022-12-26T06:52:45.778Z,100.00
2022-12-26T06:55:18.772Z,100.00
2022-12-26T06:57:53.373Z,100.00
2022-12-26T07:00:26.345Z,100.00
2022-12-26T07:02:59.322Z,100.00
2022-12-26T07:05:36.905Z,100.00
2022-12-26T07:08:09.754Z,100.00
2022-12-26T07:10:42.633Z,100.00
2022-12-26T07:13:15.468Z,100.00
2022-12-26T07:15:48.307Z,100.00
2022-12-26T07:18:21.111Z,100.00
2022-12-26T07:20:55.661Z,100.00
2022-12-26T07:23:29.620Z,100.00
2022-12-26T07:26:02.510Z,100.00
2022-12-26T07:28:35.704Z,100.00
2022-12-26T07:31:08.563Z,100.00
2022-12-26T07:33:41.393Z,100.00
2022-12-26T07:36:15.586Z,100.00
2022-12-26T07:38:48.653Z,100.00
2022-12-26T07:41:38.997Z,100.00
2022-12-26T07:44:13.487Z,100.00
2022-12-26T07:46:47.010Z,100.00
2022-12-26T07:49:19.830Z,100.00
2022-12-26T07:51:54.140Z,100.00
2022-12-26T07:54:28.536Z,100.00
2022-12-26T07:57:29.692Z,100.00
2022-12-26T07:59:54.431Z,100.00
2022-12-26T08:02:28.604Z,100.00
2022-12-26T08:05:01.589Z,100.00
2022-12-26T08:07:36.179Z,100.00
2022-12-26T08:10:09.658Z,100.00
2022-12-26T08:12:42.549Z,100.00
2022-12-26T08:15:15.436Z,100.00
2022-12-26T08:17:48.327Z,100.00
2022-12-26T08:20:21.127Z,100.00
2022-12-26T08:25:33.088Z,100.00
2022-12-26T08:28:06.355Z,100.00
2022-12-26T08:30:41.479Z,100.00
2022-12-26T08:33:14.539Z,100.00
2022-12-26T08:35:47.370Z,100.00
2022-12-26T08:38:21.513Z,100.00
2022-12-26T08:40:56.532Z,100.00
2022-12-26T08:43:45.339Z,100.00
2022-12-26T08:46:23.471Z,100.00
2022-12-26T08:48:56.282Z,100.00
2022-12-26T08:51:29.063Z,100.00
2022-12-26T08:54:03.495Z,100.00
2022-12-26T08:56:36.561Z,100.00
2022-12-26T08:59:09.637Z,100.00
2022-12-26T09:01:42.538Z,100.00
2022-12-26T09:04:15.633Z,100.00
2022-12-26T09:06:49.171Z,100.00
2022-12-26T09:09:25.822Z,100.00
2022-12-26T09:11:58.634Z,100.00
2022-12-26T09:14:31.652Z,99.71
2022-12-26T09:17:05.064Z,99.48
2022-12-26T09:19:37.899Z,99.05
2022-12-26T09:22:33.350Z,98.72
2022-12-26T09:25:10.189Z,97.40
2022-12-26T09:27:43.269Z,98.25
2022-12-26T09:30:17.432Z,99.16
2022-12-26T09:32:50.894Z,98.99
2022-12-26T09:35:23.741Z,100.00
2022-12-26T09:37:56.476Z,99.00
2022-12-26T09:40:39.402Z,97.21
2022-12-26T09:43:24.769Z,97.38
2022-12-26T09:46:07.020Z,94.62
2022-12-26T09:48:47.611Z,94.89
2022-12-26T09:51:20.596Z,95.43
2022-12-26T09:53:55.972Z,92.50
2022-12-26T09:59:29.568Z,93.23
2022-12-26T10:02:02.476Z,94.03
2022-12-26T10:04:35.623Z,93.70
2022-12-26T10:07:22.079Z,94.76
2022-12-26T10:10:12.086Z,94.49
2022-12-26T10:12:58.815Z,94.31
2022-12-26T10:15:42.200Z,93.67
2022-12-26T10:18:25.220Z,94.32
2022-12-26T10:21:13.455Z,93.50
2022-12-26T10:23:49.887Z,92.66
2022-12-26T10:26:26.084Z,92.48
2022-12-26T10:29:06.765Z,92.67
2022-12-26T10:31:43.861Z,92.47
2022-12-26T10:34:21.487Z,91.76
2022-12-26T10:37:00.001Z,90.71
2022-12-26T10:39:36.863Z,91.89
2022-12-26T10:42:15.691Z,91.51
2022-12-26T10:44:50.008Z,92.38
2022-12-26T10:47:28.366Z,91.81
2022-12-26T10:50:02.018Z,90.75
2022-12-26T10:52:39.863Z,92.21
2022-12-26T10:55:28.170Z,91.41
2022-12-26T10:58:07.967Z,91.85
2022-12-26T11:00:42.344Z,91.60
2022-12-26T11:03:17.202Z,93.34
2022-12-26T11:06:07.955Z,93.89
2022-12-26T11:08:49.133Z,92.28
2022-12-26T11:11:25.381Z,94.82
2022-12-26T11:14:03.385Z,93.44
2022-12-26T11:16:41.271Z,94.29
2022-12-26T11:19:28.016Z,94.91
2022-12-26T11:22:31.155Z,96.36
2022-12-26T11:25:13.972Z,98.19
2022-12-26T11:27:48.876Z,99.19
2022-12-26T11:30:31.271Z,99.97
2022-12-26T11:33:18.837Z,100.00
2022-12-26T11:35:55.300Z,100.00
2022-12-26T11:38:42.362Z,100.00
2022-12-26T11:41:32.800Z,99.04
2022-12-26T11:44:16.703Z,98.35
2022-12-26T11:46:52.837Z,96.86
2022-12-26T11:49:31.498Z,97.13
2022-12-26T11:52:38.342Z,93.25
2022-12-26T11:55:33.350Z,91.89
2022-12-26T11:58:19.539Z,91.31
2022-12-26T12:01:18.614Z,90.82
2022-12-26T12:03:51.506Z,92.67
2022-12-26T12:06:43.354Z,92.42
2022-12-26T12:09:22.981Z,93.11
2022-12-26T12:12:04.626Z,94.30
2022-12-26T12:14:54.198Z,93.21
2022-12-26T12:17:31.966Z,95.12
2022-12-26T12:20:18.392Z,100.00
2022-12-26T12:23:35.332Z,100.00
2022-12-26T12:26:13.045Z,100.00
2022-12-26T12:29:13.604Z,100.00
2022-12-26T12:32:01.975Z,100.00
2022-12-26T12:35:02.064Z,100.00
2022-12-26T12:37:45.789Z,100.00
2022-12-26T12:40:32.525Z,100.00
2022-12-26T12:43:16.124Z,100.00
2022-12-26T12:45:57.649Z,100.00
2022-12-26T12:48:46.814Z,100.00
2022-12-26T12:51:29.063Z,100.00
2022-12-26T12:54:28.050Z,100.00
2022-12-26T12:57:09.803Z,100.00
2022-12-26T12:59:58.861Z,100.00
2022-12-26T13:02:39.405Z,100.00
2022-12-26T13:05:21.209Z,100.00
2022-12-26T13:07:59.823Z,100.00
2022-12-26T13:10:35.783Z,100.00
2022-12-26T13:13:19.544Z,100.00
2022-12-26T13:15:57.153Z,100.00
2022-12-26T13:18:36.099Z,100.00
2022-12-26T13:21:12.868Z,99.69
2022-12-26T13:24:07.412Z,97.48
2022-12-26T13:26:44.541Z,97.60
2022-12-26T13:29:25.522Z,96.06
2022-12-26T13:31:59.532Z,96.75
2022-12-26T13:34:33.143Z,96.63
2022-12-26T13:37:06.037Z,97.77
2022-12-26T13:39:41.585Z,96.12
2022-12-26T13:42:38.669Z,94.19
2022-12-26T13:45:59.187Z,94.28
2022-12-26T13:49:03.746Z,91.89
2022-12-26T13:51:55.072Z,91.44
2022-12-26T13:54:29.849Z,90.30
2022-12-26T13:57:21.040Z,89.00
2022-12-26T14:00:23.969Z,91.31
2022-12-26T14:03:25.520Z,91.50
2022-12-26T14:06:21.932Z,90.78
2022-12-26T14:09:11.364Z,92.08
2022-12-26T14:12:09.811Z,91.47
2022-12-26T14:14:56.931Z,92.47
2022-12-26T14:17:38.719Z,92.55
2022-12-26T14:20:24.797Z,92.18
2022-12-26T14:23:12.946Z,92.88
2022-12-26T14:25:52.886Z,91.99
2022-12-26T14:28:33.306Z,91.77
2022-12-26T14:31:22.792Z,91.49
2022-12-26T14:34:06.938Z,91.00
2022-12-26T14:36:51.026Z,91.39
2022-12-26T14:39:33.373Z,90.82
2022-12-26T14:42:34.660Z,90.11
2022-12-26T14:45:36.564Z,87.85
2022-12-26T14:48:47.592Z,88.43
2022-12-26T14:51:37.282Z,88.87
2022-12-26T14:54:37.206Z,91.08
2022-12-26T14:57:46.727Z,91.24
2022-12-26T15:00:41.075Z,92.02
2022-12-26T15:03:41.794Z,91.51
2022-12-26T15:06:36.835Z,92.90
2022-12-26T15:09:38.183Z,90.53
2022-12-26T15:12:32.331Z,91.86
2022-12-26T15:15:24.110Z,92.58
2022-12-26T15:18:23.033Z,92.59
2022-12-26T15:21:16.933Z,91.32
2022-12-26T15:24:18.527Z,90.66
2022-12-26T15:27:19.798Z,89.70
2022-12-26T15:30:06.185Z,90.23
2022-12-26T15:32:47.461Z,91.92
2022-12-26T15:35:24.179Z,90.61
2022-12-26T15:38:13.698Z,90.76
2022-12-26T15:40:55.307Z,91.16
2022-12-26T15:43:40.528Z,91.60
2022-12-26T15:46:21.987Z,90.08
2022-12-26T15:49:21.017Z,90.33
2022-12-26T15:52:05.863Z,90.46
2022-12-26T15:55:01.224Z,88.28
2022-12-26T15:57:46.762Z,89.55
2022-12-26T16:00:23.768Z,86.38
2022-12-26T16:03:14.562Z,87.85
2022-12-26T16:06:00.045Z,86.54
2022-12-26T16:09:04.741Z,86.82
2022-12-26T16:11:49.880Z,84.87
2022-12-26T16:14:32.084Z,86.46
2022-12-26T16:17:17.725Z,87.49
2022-12-26T16:19:53.194Z,85.58
2022-12-26T16:22:49.410Z,86.94
2022-12-26T16:25:24.947Z,86.31
2022-12-26T16:28:00.908Z,87.85
2022-12-26T16:30:38.258Z,85.82
2022-12-26T16:33:13.504Z,86.17
2022-12-26T16:35:47.914Z,87.27
2022-12-26T16:38:30.005Z,86.76
2022-12-26T16:41:09.450Z,87.27
2022-12-26T16:43:42.400Z,86.45
2022-12-26T16:46:18.150Z,86.60
2022-12-26T16:48:55.383Z,87.42
2022-12-26T16:51:41.598Z,88.33
2022-12-26T16:54:26.397Z,88.14
2022-12-26T16:57:05.372Z,89.75
2022-12-26T16:59:45.250Z,89.83
2022-12-26T17:02:23.294Z,91.23
2022-12-26T17:05:01.472Z,90.10
2022-12-26T17:07:40.252Z,91.06
2022-12-26T17:10:19.865Z,90.15
2022-12-26T17:12:54.287Z,89.94
2022-12-26T17:15:31.600Z,91.12
2022-12-26T17:18:30.664Z,90.68
2022-12-26T17:21:21.420Z,90.86
2022-12-26T17:24:15.026Z,89.96
2022-12-26T17:26:52.989Z,90.40
2022-12-26T17:29:47.191Z,90.39
2022-12-26T17:32:36.400Z,90.44
2022-12-26T17:35:14.133Z,90.42
2022-12-26T17:37:51.090Z,90.51
2022-12-26T17:40:29.442Z,90.86
2022-12-26T17:43:08.013Z,91.77
2022-12-26T17:45:46.842Z,90.77
2022-12-26T17:48:20.014Z,90.70
2022-12-26T17:50:57.075Z,91.56
2022-12-26T17:53:33.045Z,91.88
2022-12-26T17:56:09.200Z,91.46
2022-12-26T17:58:42.293Z,90.60
2022-12-26T18:01:20.743Z,92.06
2022-12-26T18:03:54.599Z,92.13
2022-12-26T18:06:27.688Z,91.71
2022-12-26T18:09:00.470Z,90.81
2022-12-26T18:11:36.044Z,90.98
2022-12-26T18:14:14.307Z,90.52
2022-12-26T18:16:48.830Z,91.00
2022-12-26T18:19:21.847Z,91.09
2022-12-26T18:21:54.577Z,90.40
2022-12-26T18:24:27.382Z,90.12
2022-12-26T18:27:01.868Z,90.57
2022-12-26T18:29:34.690Z,90.21
2022-12-26T18:32:19.679Z,89.83
2022-12-26T18:34:53.238Z,89.90
2022-12-26T18:37:28.134Z,89.24
2022-12-26T18:40:01.040Z,89.50
2022-12-26T18:42:35.271Z,90.49
2022-12-26T18:45:08.584Z,90.37
2022-12-26T18:47:41.426Z,90.54
2022-12-26T18:50:16.685Z,90.07
2022-12-26T18:52:53.488Z,90.68
2022-12-26T18:55:28.599Z,90.41
2022-12-26T18:58:02.896Z,91.41
2022-12-26T19:00:36.335Z,91.55
2022-12-26T19:03:09.247Z,91.23
2022-12-26T19:05:42.376Z,91.40
2022-12-26T19:08:15.535Z,91.29
2022-12-26T19:10:48.348Z,91.55
2022-12-26T19:13:22.668Z,92.17
2022-12-26T19:15:55.763Z,92.18
2022-12-26T19:18:28.583Z,91.54
2022-12-26T19:21:02.028Z,92.07
2022-12-26T19:23:34.895Z,92.50
2022-12-26T19:26:11.575Z,92.33
2022-12-26T19:28:45.903Z,92.39
2022-12-26T19:31:18.882Z,93.31
2022-12-26T19:33:51.775Z,93.38
2022-12-26T19:36:24.555Z,93.25
2022-12-26T19:38:57.625Z,93.84
2022-12-26T19:41:30.417Z,93.81
2022-12-26T19:44:04.628Z,93.32
2022-12-26T19:46:37.925Z,93.83
2022-12-26T19:49:10.764Z,92.89
2022-12-26T19:51:43.601Z,93.36
2022-12-26T19:54:16.673Z,93.18
2022-12-26T19:56:49.883Z,93.73
2022-12-26T19:59:24.064Z,93.26
2022-12-26T20:01:57.064Z,93.38
2022-12-26T20:04:30.046Z,93.02
2022-12-26T20:07:02.917Z,92.54
2022-12-26T20:09:35.878Z,93.75
2022-12-26T20:12:09.096Z,93.47
2022-12-26T20:14:43.395Z,93.48
2022-12-26T20:17:16.645Z,93.42
2022-12-26T20:19:50.114Z,92.29
2022-12-26T20:22:23.481Z,92.58
2022-12-26T20:24:56.599Z,92.26
2022-12-26T20:27:29.752Z,91.78
2022-12-26T20:30:04.988Z,92.54
2022-12-26T20:32:37.843Z,92.71
2022-12-26T20:35:10.858Z,92.46
2022-12-26T20:37:43.648Z,93.27
2022-12-26T20:40:16.627Z,92.67
2022-12-26T20:42:49.506Z,92.94
2022-12-26T20:45:23.712Z,92.72
2022-12-26T20:47:56.521Z,92.82
2022-12-26T20:50:29.373Z,93.49
2022-12-26T20:53:02.182Z,93.14
2022-12-26T20:55:37.107Z,92.65
2022-12-26T20:58:09.952Z,92.28
2022-12-26T21:00:45.744Z,92.99
2022-12-26T21:03:18.686Z,92.33
2022-12-26T21:05:51.923Z,92.76
2022-12-26T21:08:24.835Z,93.59
2022-12-26T21:10:57.814Z,91.87
2022-12-26T21:13:30.723Z,92.04
2022-12-26T21:16:10.190Z,91.86
2022-12-26T21:18:43.781Z,91.73
2022-12-26T21:21:18.656Z,90.77
2022-12-26T21:23:56.854Z,91.85
2022-12-26T21:26:30.057Z,90.65
2022-12-26T21:29:05.621Z,90.03
2022-12-26T21:31:40.362Z,89.57
2022-12-26T21:34:15.267Z,90.00
2022-12-26T21:37:08.554Z,90.08
2022-12-26T21:39:42.259Z,89.14
2022-12-26T21:42:15.358Z,89.74
2022-12-26T21:44:48.810Z,89.67
2022-12-26T21:47:23.098Z,89.75
2022-12-26T21:49:55.922Z,90.12
2022-12-26T21:52:28.801Z,90.93
2022-12-26T21:55:19.703Z,89.31
2022-12-26T21:57:52.645Z,89.58
2022-12-26T22:00:25.689Z,88.92
2022-12-26T22:03:17.524Z,89.70
2022-12-26T22:05:50.620Z,88.74
2022-12-26T22:08:23.431Z,88.59
2022-12-26T22:11:13.630Z,88.68
2022-12-26T22:13:47.044Z,88.80
2022-12-26T22:16:20.211Z,88.42
2022-12-26T22:18:57.329Z,89.38
2022-12-26T22:21:30.270Z,89.36
2022-12-26T22:24:03.173Z,88.99
2022-12-26T22:26:35.998Z,88.83
2022-12-26T22:29:09.019Z,88.25
2022-12-26T22:31:41.835Z,89.44
2022-12-26T22:34:17.269Z,88.70
2022-12-26T22:36:50.337Z,88.29
2022-12-26T22:39:23.163Z,88.99
2022-12-26T22:42:01.999Z,88.53
2022-12-26T22:44:35.184Z,88.81
2022-12-26T22:47:07.983Z,88.98
2022-12-26T22:49:42.161Z,88.64
2022-12-26T22:52:16.105Z,87.95
2022-12-26T22:54:49.079Z,89.10
2022-12-26T22:57:22.491Z,88.15
2022-12-26T23:00:11.610Z,89.15
2022-12-26T23:02:44.761Z,88.22
2022-12-26T23:05:20.038Z,88.67
2022-12-26T23:07:54.503Z,87.86
2022-12-26T23:10:30.369Z,88.70
2022-12-26T23:13:03.822Z,88.10
2022-12-26T23:15:41.616Z,87.14
2022-12-26T23:18:42.956Z,88.03
2022-12-26T23:21:39.715Z,88.25
2022-12-26T23:24:16.644Z,87.58
2022-12-26T23:26:51.560Z,86.93
2022-12-26T23:29:42.653Z,88.02
2022-12-26T23:32:15.542Z,88.79
2022-12-26T23:34:48.364Z,88.82
2022-12-26T23:37:22.663Z,88.89
2022-12-26T23:39:55.497Z,89.24
2022-12-26T23:42:28.374Z,89.14
2022-12-26T23:45:01.201Z,89.20
2022-12-26T23:47:37.003Z,89.43
2022-12-26T23:50:12.102Z,89.29
2022-12-26T23:52:46.517Z,89.59
2022-12-26T23:55:19.395Z,89.88
2022-12-26T23:57:52.263Z,90.19
